createdAt,value
2022-10-13T00:01:09.136Z,4.93
2022-10-13T00:03:37.316Z,5.20
2022-10-13T00:06:09.581Z,4.50
2022-10-13T00:08:37.218Z,4.68
2022-10-13T00:11:11.799Z,4.82
2022-10-13T00:13:38.459Z,4.75
2022-10-13T00:16:08.089Z,5.13
2022-10-13T00:18:34.730Z,4.63
2022-10-13T00:21:01.771Z,4.85
2022-10-13T00:23:28.542Z,4.47
2022-10-13T00:25:56.542Z,4.13
2022-10-13T00:28:23.154Z,4.70
2022-10-13T00:30:49.693Z,4.55
2022-10-13T00:33:24.869Z,4.50
2022-10-13T00:35:52.084Z,4.40
2022-10-13T00:38:24.001Z,3.70
2022-10-13T00:40:53.833Z,4.20
2022-10-13T00:43:23.606Z,4.45
2022-10-13T00:45:51.147Z,4.40
2022-10-13T00:48:20.980Z,3.65
2022-10-13T00:50:48.523Z,4.22
2022-10-13T00:53:18.175Z,4.57
2022-10-13T00:55:47.047Z,4.43
2022-10-13T00:58:19.746Z,4.60
2022-10-13T01:00:48.993Z,4.53
2022-10-13T01:03:17.608Z,4.72
2022-10-13T01:05:44.726Z,4.32
2022-10-13T01:08:12.345Z,4.45
2022-10-13T01:11:04.044Z,4.32
2022-10-13T01:13:38.245Z,4.75
2022-10-13T01:16:16.770Z,4.40
2022-10-13T01:18:59.830Z,3.80
2022-10-13T01:21:58.360Z,4.22
2022-10-13T01:24:40.639Z,4.45
2022-10-13T01:27:17.736Z,4.65
2022-10-13T01:30:06.150Z,3.90
2022-10-13T01:33:16.638Z,4.55
2022-10-13T01:35:49.338Z,4.38
2022-10-13T01:39:05.080Z,4.60
2022-10-13T01:41:41.293Z,4.20
2022-10-13T01:44:23.505Z,4.57
2022-10-13T01:46:54.701Z,4.18
2022-10-13T01:49:28.951Z,4.13
2022-10-13T01:52:02.538Z,4.00
2022-10-13T01:54:29.135Z,4.15
2022-10-13T01:56:59.280Z,4.10
2022-10-13T01:59:30.580Z,4.20
2022-10-13T02:02:10.145Z,4.65
2022-10-13T02:04:56.804Z,4.97
2022-10-13T02:07:59.018Z,4.72
2022-10-13T02:10:33.195Z,4.43
2022-10-13T02:13:03.823Z,4.70
2022-10-13T02:15:48.078Z,4.10
2022-10-13T02:18:22.284Z,4.13
2022-10-13T02:20:50.358Z,4.60
2022-10-13T02:23:18.791Z,4.68
2022-10-13T02:25:49.059Z,4.35
2022-10-13T02:28:16.757Z,4.78
2022-10-13T02:30:45.662Z,4.43
2022-10-13T02:33:12.687Z,4.32
2022-10-13T02:35:39.358Z,4.45
2022-10-13T02:38:06.286Z,4.35
2022-10-13T02:40:33.084Z,4.68
2022-10-13T02:42:59.725Z,4.57
2022-10-13T02:45:26.765Z,5.00
2022-10-13T02:47:55.128Z,4.63
2022-10-13T02:50:21.867Z,4.72
2022-10-13T02:52:50.509Z,4.57
2022-10-13T02:55:17.052Z,4.07
2022-10-13T02:57:45.659Z,5.22
2022-10-13T03:00:13.023Z,4.90
2022-10-13T03:02:39.649Z,5.15
2022-10-13T03:05:06.429Z,4.80
2022-10-13T03:07:33.072Z,5.45
2022-10-13T03:09:59.863Z,4.57
2022-10-13T03:12:26.441Z,5.53
2022-10-13T03:14:53.133Z,4.80
2022-10-13T03:17:20.402Z,4.60
2022-10-13T03:19:47.079Z,4.80
2022-10-13T03:22:17.479Z,4.80
2022-10-13T03:24:45.178Z,4.72
2022-10-13T03:27:11.816Z,4.50
2022-10-13T03:29:38.922Z,4.95
2022-10-13T03:32:05.684Z,5.32
2022-10-13T03:34:32.472Z,5.43
2022-10-13T03:36:59.108Z,5.10
2022-10-13T03:39:25.718Z,5.10
2022-10-13T03:41:52.307Z,5.03
2022-10-13T03:44:18.877Z,4.50
2022-10-13T03:46:46.433Z,4.95
2022-10-13T03:49:13.013Z,4.78
2022-10-13T03:51:39.601Z,5.05
2022-10-13T03:54:06.095Z,4.82
2022-10-13T03:56:32.759Z,4.97
2022-10-13T03:59:00.913Z,4.93
2022-10-13T04:01:29.768Z,4.80
2022-10-13T04:03:57.843Z,4.78
2022-10-13T04:06:26.166Z,4.80
2022-10-13T04:08:53.031Z,5.22
2022-10-13T04:11:20.489Z,4.50
2022-10-13T04:13:51.431Z,5.20
2022-10-13T04:16:21.637Z,4.90
2022-10-13T04:18:54.013Z,4.80
2022-10-13T04:21:21.820Z,5.00
2022-10-13T04:23:48.666Z,5.22
2022-10-13T04:26:21.954Z,5.82
2022-10-13T04:28:50.725Z,6.00
2022-10-13T04:31:18.417Z,5.32
2022-10-13T04:33:45.851Z,5.47
2022-10-13T04:36:14.071Z,6.30
2022-10-13T04:38:41.770Z,6.07
2022-10-13T04:41:10.431Z,5.65
2022-10-13T04:43:37.027Z,6.07
2022-10-13T04:46:09.765Z,5.80
2022-10-13T04:48:36.367Z,5.13
2022-10-13T04:51:14.198Z,5.65
2022-10-13T04:53:41.051Z,6.10
2022-10-13T04:56:16.315Z,5.68
2022-10-13T04:58:44.522Z,5.78
2022-10-13T05:01:22.167Z,5.53
2022-10-13T05:03:57.203Z,5.47
2022-10-13T05:06:35.556Z,5.20
2022-10-13T05:09:02.269Z,5.60
2022-10-13T05:11:29.503Z,5.30
2022-10-13T05:13:57.341Z,5.50
2022-10-13T05:16:24.501Z,5.88
2022-10-13T05:18:54.785Z,6.15
2022-10-13T05:21:28.073Z,5.13
2022-10-13T05:23:56.396Z,5.68
2022-10-13T05:26:29.152Z,5.53
2022-10-13T05:28:57.281Z,5.43
2022-10-13T05:31:26.795Z,5.68
2022-10-13T05:33:53.731Z,6.13
2022-10-13T05:36:35.134Z,6.53
2022-10-13T05:39:07.568Z,6.57
2022-10-13T05:41:34.241Z,6.53
2022-10-13T05:44:08.652Z,7.55
2022-10-13T05:46:40.338Z,7.05
2022-10-13T05:49:06.825Z,6.88
2022-10-13T05:51:46.870Z,6.38
2022-10-13T05:54:24.341Z,6.82
2022-10-13T05:56:56.297Z,6.90
2022-10-13T05:59:27.338Z,6.80
2022-10-13T06:01:55.811Z,6.63
2022-10-13T06:04:30.327Z,6.60
2022-10-13T06:06:57.233Z,6.88
2022-10-13T06:09:24.940Z,6.88
2022-10-13T06:11:51.508Z,6.57
2022-10-13T06:14:18.011Z,5.95
2022-10-13T06:16:44.558Z,7.57
2022-10-13T06:19:11.213Z,7.40
2022-10-13T06:21:37.767Z,6.38
2022-10-13T06:24:04.657Z,7.25
2022-10-13T06:26:31.301Z,6.32
2022-10-13T06:28:59.709Z,6.70
2022-10-13T06:31:27.642Z,7.10
2022-10-13T06:33:54.247Z,7.00
2022-10-13T06:36:20.964Z,7.40
2022-10-13T06:38:47.769Z,7.25
2022-10-13T06:41:16.997Z,7.68
2022-10-13T06:43:43.874Z,8.32
2022-10-13T06:46:12.221Z,8.52
2022-10-13T06:48:39.248Z,7.88
2022-10-13T06:51:08.921Z,8.63
2022-10-13T06:53:35.857Z,8.00
2022-10-13T06:56:04.612Z,9.40
2022-10-13T06:58:31.588Z,8.95
2022-10-13T07:00:58.232Z,8.95
2022-10-13T07:03:25.373Z,9.10
2022-10-13T07:05:52.065Z,8.98
2022-10-13T07:08:19.121Z,8.82
2022-10-13T07:10:45.733Z,9.30
2022-10-13T07:13:12.397Z,8.60
2022-10-13T07:15:40.126Z,7.95
2022-10-13T07:18:07.454Z,8.35
2022-10-13T07:20:34.744Z,9.38
2022-10-13T07:23:01.340Z,9.05
2022-10-13T07:25:27.868Z,8.90
2022-10-13T07:27:54.640Z,9.27
2022-10-13T07:30:23.853Z,8.90
2022-10-13T07:32:50.437Z,8.75
2022-10-13T07:35:17.317Z,8.75
2022-10-13T07:37:43.916Z,8.77
2022-10-13T07:40:11.115Z,8.88
2022-10-13T07:42:37.614Z,9.07
2022-10-13T07:45:04.573Z,8.55
2022-10-13T07:47:31.161Z,8.18
2022-10-13T07:49:57.669Z,8.93
2022-10-13T07:52:24.260Z,8.40
2022-10-13T07:54:51.491Z,8.50
2022-10-13T07:57:18.430Z,8.75
2022-10-13T07:59:45.073Z,8.35
2022-10-13T08:02:13.092Z,9.98
2022-10-13T08:04:39.875Z,8.40
2022-10-13T08:07:06.689Z,9.15
2022-10-13T08:09:34.017Z,8.95
2022-10-13T08:12:02.231Z,9.18
2022-10-13T08:14:30.044Z,9.55
2022-10-13T08:16:57.777Z,8.52
2022-10-13T08:19:26.439Z,8.88
2022-10-13T08:22:00.672Z,10.02
2022-10-13T08:24:29.469Z,10.32
2022-10-13T08:26:56.067Z,9.65
2022-10-13T08:29:23.901Z,10.02
2022-10-13T08:31:53.075Z,9.48
2022-10-13T08:34:20.787Z,9.25
2022-10-13T08:36:47.452Z,9.23
2022-10-13T08:39:17.092Z,10.27
2022-10-13T08:41:44.185Z,8.63
2022-10-13T08:47:38.043Z,9.20
2022-10-13T08:50:13.235Z,8.98
2022-10-13T08:52:47.441Z,9.13
2022-10-13T08:55:26.042Z,8.60
2022-10-13T08:57:52.966Z,8.65
2022-10-13T09:00:25.231Z,8.40
2022-10-13T09:02:52.736Z,8.00
2022-10-13T09:05:37.728Z,7.60
2022-10-13T09:08:13.066Z,7.68
2022-10-13T09:10:59.939Z,7.72
2022-10-13T09:13:27.221Z,8.05
2022-10-13T09:15:54.094Z,8.40
2022-10-13T09:18:29.395Z,7.85
2022-10-13T09:21:19.554Z,8.30
2022-10-13T09:23:46.614Z,7.75
2022-10-13T09:26:19.964Z,8.38
2022-10-13T09:28:47.913Z,8.20
2022-10-13T09:31:28.924Z,7.97
2022-10-13T09:34:14.314Z,8.18
2022-10-13T09:37:03.355Z,8.00
2022-10-13T09:39:31.641Z,7.22
2022-10-13T09:42:20.135Z,7.00
2022-10-13T09:44:48.437Z,7.18
2022-10-13T09:47:21.980Z,7.97
2022-10-13T09:50:06.506Z,7.53
2022-10-13T09:52:34.754Z,6.75
2022-10-13T09:55:01.773Z,6.47
2022-10-13T09:57:45.150Z,7.10
2022-10-13T10:00:22.721Z,6.53
2022-10-13T10:03:02.031Z,6.65
2022-10-13T10:05:36.469Z,6.53
2022-10-13T10:08:12.833Z,6.72
2022-10-13T10:10:41.211Z,6.13
2022-10-13T10:13:15.060Z,5.38
2022-10-13T10:16:02.766Z,5.40
2022-10-13T10:18:39.534Z,5.20
2022-10-13T10:21:12.136Z,5.30
2022-10-13T10:24:01.121Z,5.00
2022-10-13T10:26:48.905Z,4.93
2022-10-13T10:29:50.565Z,4.55
2022-10-13T10:32:47.163Z,5.00
2022-10-13T10:35:45.156Z,4.60
2022-10-13T10:38:36.622Z,4.70
2022-10-13T10:41:45.115Z,4.32
2022-10-13T10:44:16.116Z,4.40
2022-10-13T10:46:47.373Z,4.43
2022-10-13T10:49:19.869Z,3.95
2022-10-13T10:51:46.731Z,4.00
2022-10-13T10:54:27.362Z,3.78
2022-10-13T10:57:00.747Z,4.35
2022-10-13T10:59:59.471Z,3.78
2022-10-13T11:03:06.368Z,3.67
2022-10-13T11:05:59.299Z,3.42
2022-10-13T11:08:40.921Z,3.60
2022-10-13T11:11:25.098Z,3.30
2022-10-13T11:14:06.916Z,3.70
2022-10-13T11:16:40.688Z,3.75
2022-10-13T11:19:32.810Z,3.28
2022-10-13T11:21:59.213Z,3.92
2022-10-13T11:24:39.385Z,3.22
2022-10-13T11:27:11.372Z,3.30
2022-10-13T11:29:44.030Z,3.50
2022-10-13T11:32:34.791Z,3.40
2022-10-13T11:35:05.615Z,3.28
2022-10-13T11:38:07.828Z,3.55
2022-10-13T11:40:46.730Z,3.38
2022-10-13T11:43:40.387Z,3.35
2022-10-13T11:46:21.756Z,3.15
2022-10-13T11:49:13.032Z,3.33
2022-10-13T11:51:46.743Z,3.28
2022-10-13T11:54:19.248Z,3.58
2022-10-13T11:56:55.077Z,3.40
2022-10-13T11:59:33.405Z,3.22
2022-10-13T12:02:13.957Z,2.90
2022-10-13T12:04:46.570Z,3.50
2022-10-13T12:07:15.693Z,3.38
2022-10-13T12:09:56.824Z,3.33
2022-10-13T12:12:27.421Z,3.85
2022-10-13T12:14:58.823Z,3.13
2022-10-13T12:17:35.311Z,3.20
2022-10-13T12:20:19.723Z,3.60
2022-10-13T12:22:50.238Z,3.80
2022-10-13T12:25:19.816Z,3.65
2022-10-13T12:27:49.413Z,3.20
2022-10-13T12:30:28.539Z,3.05
2022-10-13T12:32:57.712Z,3.10
2022-10-13T12:35:27.457Z,3.33
2022-10-13T12:37:55.813Z,3.17
2022-10-13T12:40:23.692Z,2.88
2022-10-13T12:42:50.706Z,3.22
2022-10-13T12:45:23.858Z,3.97
2022-10-13T12:47:52.743Z,3.67
2022-10-13T12:50:25.335Z,3.33
2022-10-13T12:52:54.983Z,3.10
2022-10-13T12:55:23.055Z,3.45
2022-10-13T12:57:51.496Z,3.65
2022-10-13T13:00:26.766Z,3.30
2022-10-13T13:02:55.627Z,3.42
2022-10-13T13:05:34.082Z,3.70
2022-10-13T13:08:22.266Z,3.67
2022-10-13T13:10:55.825Z,3.45
2022-10-13T13:13:24.057Z,3.42
2022-10-13T13:15:51.655Z,3.45
2022-10-13T13:18:27.257Z,3.97
2022-10-13T13:20:54.719Z,4.35
2022-10-13T13:23:23.313Z,3.67
2022-10-13T13:26:22.220Z,4.55
2022-10-13T13:28:56.483Z,4.00
2022-10-13T13:31:25.096Z,4.10
2022-10-13T13:33:52.724Z,4.15
2022-10-13T13:36:24.437Z,3.70
2022-10-13T13:38:54.526Z,4.05
2022-10-13T13:41:22.137Z,4.13
2022-10-13T13:43:48.722Z,4.20
2022-10-13T13:46:22.210Z,4.75
2022-10-13T13:48:49.263Z,3.78
2022-10-13T13:51:16.099Z,3.65
2022-10-13T13:53:44.330Z,3.85
2022-10-13T13:56:14.611Z,4.05
2022-10-13T13:58:41.332Z,3.72
2022-10-13T14:01:08.116Z,3.95
2022-10-13T14:03:34.925Z,3.70
2022-10-13T14:06:01.472Z,3.60
2022-10-13T14:08:32.832Z,3.38
2022-10-13T14:11:00.349Z,4.13
2022-10-13T14:13:26.898Z,3.75
2022-10-13T14:16:01.065Z,4.00
2022-10-13T14:18:28.611Z,4.22
2022-10-13T14:20:55.149Z,4.22
2022-10-13T14:23:21.659Z,4.15
2022-10-13T14:25:48.319Z,3.22
2022-10-13T14:28:18.411Z,3.33
2022-10-13T14:30:45.319Z,3.10
2022-10-13T14:33:11.925Z,2.70
2022-10-13T14:35:38.508Z,2.72
2022-10-13T14:38:06.039Z,3.20
2022-10-13T14:40:33.688Z,3.35
2022-10-13T14:43:00.387Z,2.90
2022-10-13T14:45:27.291Z,2.80
2022-10-13T14:47:53.875Z,2.88
2022-10-13T14:50:20.493Z,2.35
2022-10-13T14:52:51.758Z,2.38
2022-10-13T14:55:18.656Z,2.47
2022-10-13T14:57:45.246Z,2.42
2022-10-13T15:00:13.595Z,2.42
2022-10-13T15:02:40.359Z,2.28
2022-10-13T15:05:07.211Z,2.17
2022-10-13T15:07:36.806Z,2.40
2022-10-13T15:10:06.656Z,2.50
2022-10-13T15:12:34.183Z,2.10
2022-10-13T15:15:00.725Z,2.20
2022-10-13T15:17:27.971Z,2.17
2022-10-13T15:19:54.553Z,2.70
2022-10-13T15:22:21.656Z,2.47
2022-10-13T15:24:48.278Z,2.47
2022-10-13T15:27:14.758Z,2.50
2022-10-13T15:29:41.312Z,2.08
2022-10-13T15:32:18.967Z,2.50
2022-10-13T15:34:52.180Z,2.10
2022-10-13T15:37:18.722Z,1.83
2022-10-13T15:39:45.327Z,2.40
2022-10-13T15:42:12.368Z,2.30
2022-10-13T15:47:25.531Z,2.25
2022-10-13T15:49:52.191Z,2.15
2022-10-13T15:52:18.913Z,2.72
2022-10-13T15:54:45.741Z,2.70
2022-10-13T15:57:12.505Z,2.13
2022-10-13T15:59:39.044Z,2.25
2022-10-13T16:02:05.566Z,2.40
2022-10-13T16:04:37.151Z,2.30
2022-10-13T16:07:04.403Z,2.47
2022-10-13T16:09:31.216Z,2.83
2022-10-13T16:11:57.749Z,1.95
2022-10-13T16:14:24.278Z,2.00
2022-10-13T16:16:53.513Z,2.63
2022-10-13T16:19:20.462Z,2.58
2022-10-13T16:21:47.075Z,1.90
2022-10-13T16:24:14.753Z,2.08
2022-10-13T16:26:41.265Z,2.92
2022-10-13T16:29:07.880Z,3.10
2022-10-13T16:31:35.073Z,3.20
2022-10-13T16:34:02.207Z,3.10
2022-10-13T16:36:28.752Z,3.08
2022-10-13T16:38:56.318Z,3.20
2022-10-13T16:41:23.959Z,2.75
2022-10-13T16:43:50.711Z,2.63
2022-10-13T16:46:21.890Z,2.88
2022-10-13T16:48:48.766Z,3.00
2022-10-13T16:51:21.208Z,3.15
2022-10-13T16:53:53.023Z,3.05
2022-10-13T16:56:22.266Z,3.55
2022-10-13T16:58:50.219Z,3.53
2022-10-13T17:01:16.953Z,3.88
2022-10-13T17:03:46.303Z,3.50
2022-10-13T17:06:14.446Z,3.75
2022-10-13T17:08:42.463Z,3.75
2022-10-13T17:11:10.851Z,3.40
2022-10-13T17:13:37.467Z,3.10
2022-10-13T17:16:04.267Z,3.15
2022-10-13T17:18:31.225Z,3.45
2022-10-13T17:21:00.657Z,5.20
2022-10-13T17:23:28.433Z,5.35
2022-10-13T17:26:00.078Z,6.00
2022-10-13T17:28:26.680Z,3.95
2022-10-13T17:31:07.072Z,3.55
2022-10-13T17:33:36.894Z,3.88
2022-10-13T17:36:08.956Z,3.58
2022-10-13T17:38:36.811Z,4.05
2022-10-13T17:41:06.185Z,3.83
2022-10-13T17:43:34.670Z,3.85
2022-10-13T17:46:34.929Z,3.90
2022-10-13T17:49:00.768Z,5.05
2022-10-13T17:51:27.892Z,4.60
2022-10-13T17:53:54.656Z,4.72
2022-10-13T17:56:24.242Z,4.72
2022-10-13T17:58:51.409Z,4.03
2022-10-13T18:01:30.197Z,4.35
2022-10-13T18:04:00.336Z,4.63
2022-10-13T18:06:37.907Z,4.00
2022-10-13T18:09:07.380Z,4.00
2022-10-13T18:11:36.042Z,4.47
2022-10-13T18:14:02.690Z,4.70
2022-10-13T18:16:29.511Z,4.93
2022-10-13T18:18:56.157Z,4.72
2022-10-13T18:21:27.533Z,5.15
2022-10-13T18:23:58.996Z,4.90
2022-10-13T18:26:27.292Z,5.53
2022-10-13T18:28:54.220Z,5.05
2022-10-13T18:31:29.541Z,5.80
2022-10-13T18:34:02.192Z,5.50
2022-10-13T18:36:31.107Z,5.55
2022-10-13T18:39:05.784Z,5.72
2022-10-13T18:41:33.085Z,5.95
2022-10-13T18:44:00.329Z,5.78
2022-10-13T18:46:27.028Z,5.95
2022-10-13T18:48:53.554Z,4.90
2022-10-13T18:51:20.626Z,5.18
2022-10-13T18:53:48.944Z,5.72
2022-10-13T18:56:21.849Z,5.82
2022-10-13T18:58:49.181Z,5.65
2022-10-13T19:01:21.329Z,5.70
2022-10-13T19:03:50.579Z,5.72
2022-10-13T19:06:19.428Z,5.63
2022-10-13T19:08:50.972Z,5.85
2022-10-13T19:11:20.380Z,5.70
2022-10-13T19:13:48.074Z,6.15
2022-10-13T19:16:16.964Z,6.13
2022-10-13T19:18:44.285Z,6.07
2022-10-13T19:21:11.870Z,6.00
2022-10-13T19:23:39.296Z,5.35
2022-10-13T19:26:16.388Z,5.60
2022-10-13T19:28:44.222Z,4.75
2022-10-13T19:31:13.782Z,5.82
2022-10-13T19:33:44.805Z,5.40
2022-10-13T19:36:20.521Z,5.70
2022-10-13T19:38:51.281Z,5.50
2022-10-13T19:41:18.383Z,5.10
2022-10-13T19:43:46.570Z,5.32
2022-10-13T19:46:13.813Z,5.32
2022-10-13T19:48:40.299Z,6.05
2022-10-13T19:51:08.615Z,5.35
2022-10-13T19:53:36.549Z,5.45
2022-10-13T19:56:04.197Z,6.28
2022-10-13T19:58:30.842Z,6.63
2022-10-13T20:01:03.934Z,5.70
2022-10-13T20:03:30.802Z,6.15
2022-10-13T20:05:57.348Z,5.47
2022-10-13T20:08:23.962Z,6.03
2022-10-13T20:10:50.585Z,6.68
2022-10-13T20:13:17.164Z,6.90
2022-10-13T20:15:49.700Z,6.10
2022-10-13T20:18:16.330Z,6.70
2022-10-13T20:20:44.030Z,6.22
2022-10-13T20:23:10.701Z,5.55
2022-10-13T20:25:38.598Z,6.13
2022-10-13T20:28:07.256Z,6.03
2022-10-13T20:30:33.925Z,5.68
2022-10-13T20:33:00.879Z,6.00
2022-10-13T20:35:27.640Z,6.05
2022-10-13T20:37:57.652Z,6.10
2022-10-13T20:40:24.668Z,6.40
2022-10-13T20:42:52.156Z,6.03
2022-10-13T20:45:20.366Z,5.80
2022-10-13T20:47:48.613Z,6.60
2022-10-13T20:50:15.289Z,5.53
2022-10-13T20:52:41.968Z,6.18
2022-10-13T20:55:09.103Z,6.60
2022-10-13T20:57:36.562Z,6.30
2022-10-13T21:00:05.766Z,7.20
2022-10-13T21:02:32.418Z,6.82
2022-10-13T21:04:58.957Z,5.75
2022-10-13T21:07:25.638Z,6.47
2022-10-13T21:09:54.001Z,6.55
2022-10-13T21:12:21.547Z,6.93
2022-10-13T21:14:48.403Z,7.47
2022-10-13T21:17:14.972Z,7.22
2022-10-13T21:19:41.505Z,6.97
2022-10-13T21:22:08.136Z,7.47
2022-10-13T21:24:34.965Z,7.72
2022-10-13T21:34:57.803Z,7.82
2022-10-13T21:41:35.968Z,7.45
2022-10-13T21:44:03.106Z,7.68
2022-10-13T21:46:34.143Z,7.18
2022-10-13T21:49:03.256Z,7.68
2022-10-13T21:51:36.623Z,6.95
2022-10-13T21:54:11.207Z,7.10
2022-10-13T21:56:38.747Z,7.40
2022-10-13T21:59:06.653Z,7.22
2022-10-13T22:01:34.074Z,7.18
2022-10-13T22:04:02.614Z,7.63
2022-10-13T22:06:31.944Z,7.70
2022-10-13T22:09:01.450Z,6.90
2022-10-13T22:11:30.780Z,7.65
2022-10-13T22:13:58.536Z,7.10
2022-10-13T22:16:28.685Z,6.55
2022-10-13T22:18:57.130Z,6.18
2022-10-13T22:21:26.966Z,7.13
2022-10-13T22:23:57.160Z,6.97
2022-10-13T22:26:23.829Z,7.90
2022-10-13T22:28:51.707Z,6.70
2022-10-13T22:31:18.771Z,7.43
2022-10-13T22:33:46.607Z,6.80
2022-10-13T22:36:18.733Z,7.03
2022-10-13T22:38:46.590Z,7.18
2022-10-13T22:41:14.809Z,6.70
2022-10-13T22:43:44.370Z,6.90
2022-10-13T22:46:12.388Z,7.43
2022-10-13T22:48:40.860Z,6.47
2022-10-13T22:51:09.962Z,6.32
2022-10-13T22:53:37.230Z,7.07
2022-10-13T22:56:08.903Z,6.82
2022-10-13T22:58:38.233Z,6.07
2022-10-13T23:01:10.208Z,6.72
2022-10-13T23:03:37.961Z,6.55
2022-10-13T23:06:05.812Z,6.75
2022-10-13T23:08:32.711Z,6.93
2022-10-13T23:10:59.447Z,7.07
2022-10-13T23:13:28.781Z,6.40
2022-10-13T23:16:09.181Z,7.25
2022-10-13T23:18:38.153Z,6.90
2022-10-13T23:21:10.126Z,7.05
2022-10-13T23:23:36.764Z,6.43
2022-10-13T23:26:07.656Z,6.95
2022-10-13T23:28:35.219Z,7.05
2022-10-13T23:31:03.976Z,7.22
2022-10-13T23:33:30.733Z,7.88
2022-10-13T23:35:58.691Z,6.97
2022-10-13T23:38:26.574Z,7.10
2022-10-13T23:40:53.221Z,7.53
2022-10-13T23:43:20.078Z,6.68
2022-10-13T23:45:47.464Z,6.63
2022-10-13T23:48:15.224Z,7.18
2022-10-13T23:50:42.978Z,7.18
2022-10-13T23:53:09.483Z,6.60
2022-10-13T23:55:39.181Z,6.97
2022-10-13T23:58:06.512Z,6.63
